createdAt,value
2023-02-27T00:01:27.735Z,1.70
2023-02-27T00:04:06.531Z,1.76
2023-02-27T00:06:45.558Z,1.53
2023-02-27T00:09:31.057Z,1.66
2023-02-27T00:12:03.933Z,1.61
2023-02-27T00:14:54.106Z,1.54
2023-02-27T00:17:36.680Z,1.32
2023-02-27T00:20:18.312Z,1.57
2023-02-27T00:22:59.446Z,1.35
2023-02-27T00:25:36.340Z,1.43
2023-02-27T00:28:12.923Z,1.33
2023-02-27T00:31:00.737Z,1.28
2023-02-27T00:33:43.708Z,1.30
2023-02-27T00:36:23.548Z,1.41
2023-02-27T00:39:02.764Z,1.24
2023-02-27T00:41:37.448Z,1.32
2023-02-27T00:44:19.258Z,1.35
2023-02-27T00:47:07.321Z,1.18
2023-02-27T00:49:56.316Z,1.31
2023-02-27T00:52:33.870Z,1.27
2023-02-27T00:55:13.313Z,1.27
2023-02-27T00:57:54.660Z,1.09
2023-02-27T01:00:33.471Z,0.85
2023-02-27T01:06:05.435Z,0.96
2023-02-27T01:08:42.904Z,1.22
2023-02-27T01:11:39.361Z,1.21
2023-02-27T01:14:12.470Z,1.25
2023-02-27T01:16:47.143Z,0.86
2023-02-27T01:19:24.108Z,0.95
2023-02-27T01:22:02.355Z,1.06
2023-02-27T01:24:37.808Z,1.12
2023-02-27T01:27:15.215Z,0.81
2023-02-27T01:29:51.188Z,0.74
2023-02-27T01:32:29.296Z,1.04
2023-02-27T01:35:18.695Z,1.25
2023-02-27T01:37:53.916Z,1.31
2023-02-27T01:40:29.392Z,1.09
2023-02-27T01:43:04.000Z,1.29
2023-02-27T01:45:39.350Z,1.15
2023-02-27T01:48:21.367Z,1.23
2023-02-27T01:51:12.010Z,1.12
2023-02-27T01:53:50.469Z,1.17
2023-02-27T01:56:25.781Z,1.18
2023-02-27T01:59:08.637Z,0.67
2023-02-27T02:01:55.126Z,1.15
2023-02-27T02:04:35.454Z,1.04
2023-02-27T02:07:17.248Z,1.15
2023-02-27T02:09:55.601Z,1.14
2023-02-27T02:12:43.481Z,1.22
2023-02-27T02:15:25.623Z,1.01
2023-02-27T02:18:15.000Z,1.06
2023-02-27T02:21:35.969Z,1.06
2023-02-27T02:24:51.337Z,0.97
2023-02-27T02:27:48.994Z,0.89
2023-02-27T02:31:24.616Z,1.07
2023-02-27T02:34:51.925Z,1.15
2023-02-27T02:38:02.849Z,1.04
2023-02-27T02:40:45.045Z,1.02
2023-02-27T02:43:26.072Z,1.11
2023-02-27T02:46:13.534Z,1.20
2023-02-27T02:48:59.716Z,1.19
2023-02-27T02:51:48.650Z,1.27
2023-02-27T02:54:46.102Z,1.17
2023-02-27T02:57:33.896Z,1.15
2023-02-27T03:00:33.668Z,1.22
2023-02-27T03:03:21.835Z,1.27
2023-02-27T03:06:06.439Z,1.17
2023-02-27T03:08:50.314Z,1.18
2023-02-27T03:11:41.153Z,1.01
2023-02-27T03:14:33.365Z,0.91
2023-02-27T03:17:19.441Z,0.98
2023-02-27T03:20:12.428Z,1.03
2023-02-27T03:22:54.709Z,1.03
2023-02-27T03:25:32.966Z,0.85
2023-02-27T03:28:27.327Z,0.95
2023-02-27T03:31:30.323Z,1.28
2023-02-27T03:34:20.939Z,1.25
2023-02-27T03:37:10.934Z,1.32
2023-02-27T03:40:06.678Z,1.34
2023-02-27T03:42:55.561Z,1.11
2023-02-27T03:46:02.305Z,1.31
2023-02-27T03:49:03.380Z,0.94
2023-02-27T03:51:42.575Z,1.10
2023-02-27T03:54:19.420Z,1.32
2023-02-27T03:56:58.686Z,1.24
2023-02-27T03:59:52.554Z,1.11
2023-02-27T04:02:27.872Z,1.23
2023-02-27T04:05:11.631Z,1.30
2023-02-27T04:08:39.818Z,1.35
2023-02-27T04:11:44.904Z,1.22
2023-02-27T04:14:36.275Z,1.07
2023-02-27T04:17:29.361Z,1.35
2023-02-27T04:20:46.672Z,1.37
2023-02-27T04:23:27.589Z,1.32
2023-02-27T04:26:06.825Z,1.33
2023-02-27T04:28:48.903Z,1.30
2023-02-27T04:31:41.282Z,1.23
2023-02-27T04:34:31.350Z,1.44
2023-02-27T04:37:18.252Z,1.44
2023-02-27T04:40:09.537Z,1.39
2023-02-27T04:42:57.236Z,1.52
2023-02-27T04:45:46.053Z,1.26
2023-02-27T04:48:32.170Z,1.34
2023-02-27T04:51:26.373Z,1.46
2023-02-27T04:54:09.109Z,1.51
2023-02-27T04:57:09.338Z,1.36
2023-02-27T04:59:52.250Z,1.34
2023-02-27T05:02:39.718Z,1.27
2023-02-27T05:05:17.861Z,1.48
2023-02-27T05:08:10.751Z,1.58
2023-02-27T05:10:57.659Z,1.20
2023-02-27T05:13:44.394Z,1.64
2023-02-27T05:16:28.897Z,1.64
2023-02-27T05:19:11.482Z,1.12
2023-02-27T05:22:04.754Z,1.47
2023-02-27T05:24:58.444Z,1.57
2023-02-27T05:27:44.203Z,1.41
2023-02-27T05:30:54.162Z,1.52
2023-02-27T05:33:40.153Z,1.62
2023-02-27T05:36:20.523Z,1.53
2023-02-27T05:39:00.684Z,1.43
2023-02-27T05:41:43.642Z,1.52
2023-02-27T05:44:24.035Z,1.69
2023-02-27T05:47:22.423Z,1.62
2023-02-27T05:50:28.213Z,1.39
2023-02-27T05:53:13.375Z,1.65
2023-02-27T05:55:57.195Z,1.72
2023-02-27T05:58:36.691Z,1.72
2023-02-27T06:01:12.639Z,1.53
2023-02-27T06:03:58.133Z,1.67
2023-02-27T06:06:40.878Z,1.53
2023-02-27T06:09:23.704Z,1.60
2023-02-27T06:12:00.613Z,1.76
2023-02-27T06:14:35.926Z,1.64
2023-02-27T06:17:06.652Z,1.66
2023-02-27T06:19:46.154Z,1.64
2023-02-27T06:22:25.352Z,1.55
2023-02-27T06:25:03.342Z,1.56
2023-02-27T06:27:39.134Z,1.34
2023-02-27T06:30:25.816Z,1.66
2023-02-27T06:33:04.147Z,1.58
2023-02-27T06:35:44.810Z,1.62
2023-02-27T06:38:20.781Z,1.58
2023-02-27T06:40:56.288Z,1.84
2023-02-27T06:43:36.676Z,1.77
2023-02-27T06:46:13.840Z,1.97
2023-02-27T06:48:48.787Z,2.01
2023-02-27T06:51:35.907Z,2.11
2023-02-27T06:54:20.932Z,1.98
2023-02-27T06:57:01.252Z,1.96
2023-02-27T06:59:43.531Z,1.93
2023-02-27T07:02:20.345Z,2.11
2023-02-27T07:04:55.955Z,2.24
2023-02-27T07:07:43.919Z,2.29
2023-02-27T07:10:27.590Z,2.26
2023-02-27T07:13:03.623Z,2.16
2023-02-27T07:15:50.981Z,1.91
2023-02-27T07:18:33.128Z,2.12
2023-02-27T07:21:14.570Z,2.17
2023-02-27T07:23:51.510Z,2.21
2023-02-27T07:26:31.123Z,2.10
2023-02-27T07:29:09.963Z,2.29
2023-02-27T07:31:44.577Z,2.08
2023-02-27T07:34:32.221Z,2.29
2023-02-27T07:37:11.936Z,2.30
2023-02-27T07:40:08.237Z,2.31
2023-02-27T07:42:40.640Z,2.14
2023-02-27T07:45:19.216Z,2.41
2023-02-27T07:48:04.061Z,2.37
2023-02-27T07:50:48.465Z,2.29
2023-02-27T07:53:19.425Z,2.46
2023-02-27T07:56:15.104Z,2.46
2023-02-27T07:58:47.261Z,2.54
2023-02-27T08:01:26.636Z,2.59
2023-02-27T08:04:03.321Z,2.51
2023-02-27T08:06:41.430Z,2.39
2023-02-27T08:09:21.147Z,2.57
2023-02-27T08:12:00.815Z,2.67
2023-02-27T08:14:42.284Z,2.67
2023-02-27T08:17:15.271Z,2.60
2023-02-27T08:19:46.888Z,2.63
2023-02-27T08:22:25.020Z,2.66
2023-02-27T08:25:03.575Z,2.66
2023-02-27T08:27:53.006Z,2.60
2023-02-27T08:30:23.503Z,2.59
2023-02-27T08:33:04.855Z,2.60
2023-02-27T08:35:39.833Z,2.63
2023-02-27T08:38:18.112Z,2.72
2023-02-27T08:40:59.024Z,2.72
2023-02-27T08:43:42.654Z,2.72
2023-02-27T08:46:14.689Z,2.82
2023-02-27T08:48:57.885Z,2.50
2023-02-27T08:51:37.436Z,2.78
2023-02-27T08:54:09.304Z,2.84
2023-02-27T08:56:40.028Z,2.77
2023-02-27T08:59:25.173Z,2.72
2023-02-27T09:02:08.919Z,3.13
2023-02-27T09:04:44.963Z,3.31
2023-02-27T09:07:26.538Z,3.30
2023-02-27T09:10:00.693Z,3.20
2023-02-27T09:12:45.333Z,3.23
2023-02-27T09:15:30.420Z,3.03
2023-02-27T09:18:18.224Z,3.21
2023-02-27T09:21:03.697Z,3.12
2023-02-27T09:23:36.076Z,2.97
2023-02-27T09:26:32.115Z,3.07
2023-02-27T09:29:23.669Z,2.96
2023-02-27T09:32:01.633Z,3.26
2023-02-27T09:34:38.381Z,3.36
2023-02-27T09:37:15.152Z,3.36
2023-02-27T09:39:57.008Z,3.05
2023-02-27T09:42:35.880Z,3.23
2023-02-27T09:45:20.062Z,3.20
2023-02-27T09:48:07.332Z,3.21
2023-02-27T09:50:46.987Z,3.30
2023-02-27T09:53:36.779Z,2.98
2023-02-27T09:56:30.811Z,3.09
2023-02-27T09:59:40.093Z,3.20
2023-02-27T10:02:40.777Z,3.18
2023-02-27T10:05:50.966Z,3.24
2023-02-27T10:08:44.072Z,3.10
2023-02-27T10:11:30.220Z,3.43
2023-02-27T10:14:14.572Z,3.53
2023-02-27T10:17:00.108Z,3.41
2023-02-27T10:19:40.855Z,3.77
2023-02-27T10:22:27.383Z,3.61
2023-02-27T10:25:31.571Z,3.46
2023-02-27T10:28:18.449Z,3.75
2023-02-27T10:31:01.782Z,3.77
2023-02-27T10:33:45.001Z,3.75
2023-02-27T10:36:33.070Z,3.80
2023-02-27T10:39:28.186Z,4.02
2023-02-27T10:42:11.751Z,4.04
2023-02-27T10:44:50.595Z,4.17
2023-02-27T10:47:37.384Z,4.29
2023-02-27T10:50:24.397Z,4.35
2023-02-27T10:53:03.539Z,4.37
2023-02-27T10:55:45.164Z,4.52
2023-02-27T10:58:25.871Z,4.58
2023-02-27T11:01:02.223Z,4.67
2023-02-27T11:03:41.498Z,4.77
2023-02-27T11:06:33.364Z,4.81
2023-02-27T11:09:27.876Z,4.81
2023-02-27T11:12:27.737Z,4.68
2023-02-27T11:15:28.834Z,4.91
2023-02-27T11:18:33.857Z,4.98
2023-02-27T11:21:24.888Z,4.96
2023-02-27T11:24:11.536Z,5.15
2023-02-27T11:27:00.784Z,5.27
2023-02-27T11:30:11.124Z,5.17
2023-02-27T11:32:59.139Z,4.97
2023-02-27T11:35:40.717Z,4.83
2023-02-27T11:38:25.852Z,4.84
2023-02-27T11:41:03.325Z,4.95
2023-02-27T11:43:52.256Z,4.89
2023-02-27T11:46:47.090Z,5.02
2023-02-27T11:49:40.213Z,4.95
2023-02-27T11:52:23.244Z,4.88
2023-02-27T11:55:10.115Z,4.80
2023-02-27T11:57:51.886Z,4.85
2023-02-27T12:00:38.725Z,4.89
2023-02-27T12:03:31.438Z,4.85
2023-02-27T12:06:15.401Z,4.97
2023-02-27T12:09:01.444Z,4.91
2023-02-27T12:11:42.826Z,5.29
2023-02-27T12:17:23.602Z,5.44
2023-02-27T12:20:29.899Z,5.54
2023-02-27T12:23:19.127Z,5.52
2023-02-27T12:26:04.455Z,5.48
2023-02-27T12:28:54.145Z,5.61
2023-02-27T12:31:45.375Z,5.76
2023-02-27T12:34:45.594Z,5.82
2023-02-27T12:37:31.600Z,5.65
2023-02-27T12:40:12.297Z,5.63
2023-02-27T12:46:40.977Z,5.84
2023-02-27T12:49:48.783Z,5.93
2023-02-27T12:52:52.504Z,5.81
2023-02-27T12:55:32.956Z,5.76
2023-02-27T12:59:00.948Z,5.80
2023-02-27T13:01:45.147Z,5.68
2023-02-27T13:04:27.724Z,5.96
2023-02-27T13:07:07.581Z,6.03
2023-02-27T13:10:03.082Z,6.06
2023-02-27T13:12:53.990Z,6.04
2023-02-27T13:15:37.544Z,6.02
2023-02-27T13:18:27.262Z,6.21
2023-02-27T13:21:11.402Z,6.33
2023-02-27T13:23:55.965Z,6.13
2023-02-27T13:26:41.507Z,6.40
2023-02-27T13:29:20.966Z,6.36
2023-02-27T13:32:04.172Z,6.25
2023-02-27T13:34:42.380Z,6.19
2023-02-27T13:37:14.058Z,6.21
2023-02-27T13:40:03.070Z,6.17
2023-02-27T13:43:02.607Z,5.93
2023-02-27T13:45:59.705Z,6.00
2023-02-27T13:48:55.637Z,6.04
2023-02-27T13:52:02.307Z,6.10
2023-02-27T13:54:44.478Z,6.08
2023-02-27T13:57:38.391Z,6.07
2023-02-27T14:00:32.833Z,6.09
2023-02-27T14:03:14.071Z,6.09
2023-02-27T14:05:49.612Z,6.08
2023-02-27T14:08:29.908Z,5.76
2023-02-27T14:11:10.154Z,6.14
2023-02-27T14:14:05.046Z,6.12
2023-02-27T14:17:12.770Z,6.13
2023-02-27T14:20:06.743Z,6.10
2023-02-27T14:23:20.682Z,6.09
2023-02-27T14:25:59.083Z,6.10
2023-02-27T14:28:38.129Z,6.10
2023-02-27T14:31:23.077Z,5.99
2023-02-27T14:34:11.655Z,5.83
2023-02-27T14:36:52.190Z,5.78
2023-02-27T14:39:37.615Z,5.74
2023-02-27T14:42:48.460Z,5.81
2023-02-27T14:45:28.072Z,5.90
2023-02-27T14:48:02.590Z,5.79
2023-02-27T14:50:41.806Z,5.90
2023-02-27T14:53:27.090Z,5.89
2023-02-27T14:56:05.394Z,5.78
2023-02-27T14:59:02.241Z,5.78
2023-02-27T15:01:43.103Z,5.78
2023-02-27T15:04:29.620Z,5.82
2023-02-27T15:07:07.596Z,5.86
2023-02-27T15:09:51.684Z,5.85
2023-02-27T15:12:25.628Z,5.75
2023-02-27T15:15:12.857Z,5.80
2023-02-27T15:17:51.682Z,5.72
2023-02-27T15:20:39.980Z,5.78
2023-02-27T15:23:35.971Z,5.69
2023-02-27T15:26:14.821Z,5.79
2023-02-27T15:28:53.893Z,5.73
2023-02-27T15:31:39.255Z,5.68
2023-02-27T15:34:20.466Z,5.68
2023-02-27T15:36:53.998Z,5.70
2023-02-27T15:39:33.956Z,5.66
2023-02-27T15:42:12.948Z,5.62
2023-02-27T15:44:50.057Z,5.64
2023-02-27T15:47:28.589Z,5.53
2023-02-27T15:50:12.708Z,5.68
2023-02-27T15:52:55.447Z,5.68
2023-02-27T15:55:39.100Z,5.68
2023-02-27T15:58:53.416Z,5.60
2023-02-27T16:01:31.945Z,5.49
2023-02-27T16:04:12.089Z,5.53
2023-02-27T16:06:54.560Z,5.53
2023-02-27T16:09:37.259Z,5.52
2023-02-27T16:12:34.619Z,5.45
2023-02-27T16:15:31.112Z,5.50
2023-02-27T16:18:10.559Z,5.43
2023-02-27T16:21:02.993Z,5.50
2023-02-27T16:23:39.739Z,5.46
2023-02-27T16:26:39.666Z,5.42
2023-02-27T16:29:26.339Z,5.41
2023-02-27T16:34:56.938Z,5.22
2023-02-27T16:37:35.802Z,5.32
2023-02-27T16:40:24.547Z,5.35
2023-02-27T16:43:12.109Z,5.25
2023-02-27T16:46:07.746Z,5.28
2023-02-27T16:48:42.220Z,5.29
2023-02-27T16:51:21.899Z,5.28
2023-02-27T16:53:59.058Z,5.25
2023-02-27T16:56:38.611Z,5.26
2023-02-27T16:59:25.873Z,5.07
2023-02-27T17:02:11.822Z,5.22
2023-02-27T17:04:49.267Z,5.19
2023-02-27T17:07:24.602Z,5.17
2023-02-27T17:10:04.063Z,5.01
2023-02-27T17:12:45.037Z,5.13
2023-02-27T17:15:19.313Z,5.11
2023-02-27T17:17:54.596Z,5.08
2023-02-27T17:20:30.832Z,5.09
2023-02-27T17:23:08.674Z,4.84
2023-02-27T17:25:43.379Z,5.07
2023-02-27T17:28:24.409Z,4.98
2023-02-27T17:31:01.152Z,5.02
2023-02-27T17:33:40.488Z,5.03
2023-02-27T17:36:19.362Z,5.05
2023-02-27T17:38:57.515Z,4.82
2023-02-27T17:41:37.454Z,5.04
2023-02-27T17:44:15.295Z,4.82
2023-02-27T17:46:53.367Z,4.98
2023-02-27T17:49:34.275Z,5.01
2023-02-27T17:52:09.814Z,4.98
2023-02-27T17:54:56.972Z,4.92
2023-02-27T17:57:28.781Z,4.96
2023-02-27T18:00:04.101Z,4.95
2023-02-27T18:02:48.662Z,4.84
2023-02-27T18:05:39.777Z,4.93
2023-02-27T18:08:16.782Z,4.81
2023-02-27T18:10:54.635Z,4.91
2023-02-27T18:13:36.011Z,4.93
2023-02-27T18:16:15.783Z,4.95
2023-02-27T18:18:53.412Z,4.94
2023-02-27T18:21:35.975Z,4.93
2023-02-27T18:24:29.956Z,5.00
2023-02-27T18:27:03.764Z,5.03
2023-02-27T18:29:39.179Z,5.04
2023-02-27T18:32:25.559Z,4.92
2023-02-27T18:35:05.087Z,5.08
2023-02-27T18:40:32.632Z,5.17
2023-02-27T18:43:14.116Z,5.03
2023-02-27T18:45:53.014Z,4.96
2023-02-27T18:48:41.235Z,5.19
2023-02-27T18:51:26.787Z,5.21
2023-02-27T18:54:13.636Z,5.23
2023-02-27T18:56:54.931Z,5.07
2023-02-27T18:59:31.639Z,5.28
2023-02-27T19:02:02.924Z,5.30
2023-02-27T19:04:44.450Z,5.24
2023-02-27T19:07:17.083Z,5.08
2023-02-27T19:09:56.797Z,5.29
2023-02-27T19:12:30.570Z,5.25
2023-02-27T19:15:10.816Z,5.16
2023-02-27T19:17:50.725Z,5.31
2023-02-27T19:20:20.959Z,5.21
2023-02-27T19:22:51.093Z,5.31
2023-02-27T19:25:32.201Z,5.30
2023-02-27T19:28:10.435Z,5.28
2023-02-27T19:30:45.758Z,5.30
2023-02-27T19:33:17.034Z,5.31
2023-02-27T19:35:47.438Z,5.08
2023-02-27T19:38:28.820Z,5.30
2023-02-27T19:41:16.450Z,5.30
2023-02-27T19:43:57.461Z,5.27
2023-02-27T19:46:33.029Z,5.19
2023-02-27T19:49:12.288Z,5.29
2023-02-27T19:51:44.999Z,5.32
2023-02-27T19:54:19.664Z,5.31
2023-02-27T19:57:01.190Z,5.29
2023-02-27T19:59:43.818Z,5.29
2023-02-27T20:02:23.061Z,5.21
2023-02-27T20:04:56.377Z,5.26
2023-02-27T20:07:35.021Z,5.19
2023-02-27T20:10:09.120Z,5.15
2023-02-27T20:12:47.423Z,5.09
2023-02-27T20:15:24.354Z,5.10
2023-02-27T20:17:56.522Z,5.03
2023-02-27T20:20:32.766Z,4.91
2023-02-27T20:23:06.753Z,4.94
2023-02-27T20:25:39.409Z,4.94
2023-02-27T20:28:14.815Z,4.98
2023-02-27T20:30:45.046Z,4.97
2023-02-27T20:33:23.214Z,4.93
2023-02-27T20:35:57.276Z,4.81
2023-02-27T20:38:35.562Z,4.76
2023-02-27T20:41:29.968Z,4.77
2023-02-27T20:44:19.705Z,4.53
2023-02-27T20:46:56.867Z,4.47
2023-02-27T20:49:32.265Z,4.52
2023-02-27T20:52:13.961Z,4.58
2023-02-27T20:54:45.239Z,4.62
2023-02-27T20:57:24.356Z,4.55
2023-02-27T21:00:05.621Z,4.48
2023-02-27T21:02:41.364Z,4.55
2023-02-27T21:05:20.447Z,4.51
2023-02-27T21:07:56.696Z,4.36
2023-02-27T21:10:35.387Z,4.37
2023-02-27T21:13:11.309Z,4.43
2023-02-27T21:15:59.938Z,4.41
2023-02-27T21:18:39.686Z,4.31
2023-02-27T21:21:28.479Z,4.25
2023-02-27T21:24:09.261Z,4.32
2023-02-27T21:26:47.301Z,4.40
2023-02-27T21:29:27.198Z,4.40
2023-02-27T21:32:26.265Z,4.34
2023-02-27T21:35:08.616Z,4.47
2023-02-27T21:37:49.464Z,4.51
2023-02-27T21:40:25.229Z,4.53
2023-02-27T21:42:59.907Z,4.53
2023-02-27T21:45:38.786Z,4.34
2023-02-27T21:48:21.423Z,4.51
2023-02-27T21:51:14.032Z,4.54
2023-02-27T21:53:57.116Z,4.51
2023-02-27T21:56:39.286Z,4.49
2023-02-27T21:59:12.720Z,4.53
2023-02-27T22:01:53.600Z,4.55
2023-02-27T22:04:31.271Z,4.41
2023-02-27T22:07:12.375Z,4.43
2023-02-27T22:09:54.637Z,4.04
2023-02-27T22:12:28.844Z,4.14
2023-02-27T22:15:08.532Z,4.22
2023-02-27T22:17:51.731Z,4.06
2023-02-27T22:20:34.317Z,4.15
2023-02-27T22:23:17.478Z,4.13
2023-02-27T22:25:52.275Z,3.92
2023-02-27T22:28:28.063Z,4.03
2023-02-27T22:31:15.203Z,4.11
2023-02-27T22:33:50.248Z,4.11
2023-02-27T22:36:37.974Z,3.99
2023-02-27T22:39:14.265Z,3.96
2023-02-27T22:41:55.925Z,3.96
2023-02-27T22:44:33.672Z,3.98
2023-02-27T22:47:14.500Z,3.89
2023-02-27T22:49:57.942Z,3.98
2023-02-27T22:52:51.593Z,3.74
2023-02-27T22:55:27.395Z,3.65
2023-02-27T22:58:02.401Z,3.65
2023-02-27T23:00:48.504Z,3.69
2023-02-27T23:03:40.754Z,3.71
2023-02-27T23:06:19.134Z,3.67
2023-02-27T23:09:13.978Z,3.76
2023-02-27T23:11:46.085Z,3.41
2023-02-27T23:14:33.503Z,3.57
2023-02-27T23:17:07.515Z,3.56
2023-02-27T23:19:46.025Z,3.46
2023-02-27T23:22:23.401Z,3.61
2023-02-27T23:25:08.975Z,3.50
2023-02-27T23:27:47.749Z,3.51
2023-02-27T23:30:38.524Z,3.54
2023-02-27T23:33:16.715Z,3.54
2023-02-27T23:35:55.181Z,3.44
2023-02-27T23:38:35.220Z,3.49
2023-02-27T23:41:25.241Z,3.24
2023-02-27T23:44:03.166Z,3.31
2023-02-27T23:46:41.518Z,3.24
2023-02-27T23:49:18.610Z,3.28
2023-02-27T23:51:55.629Z,3.31
2023-02-27T23:57:20.918Z,3.28
2023-02-27T23:59:55.337Z,3.28
